createdAt,value
2023-03-22T00:07:32.265Z,4
2023-03-22T00:17:39.716Z,6
2023-03-22T00:27:46.374Z,26
2023-03-22T00:37:53.667Z,57
2023-03-22T00:48:00.966Z,40
2023-03-22T00:58:06.477Z,32
2023-03-22T01:08:12.038Z,33
2023-03-22T01:18:20.161Z,42
2023-03-22T01:28:27.481Z,32
2023-03-22T01:38:34.609Z,29
2023-03-22T01:48:40.059Z,18
2023-03-22T01:58:44.459Z,18
2023-03-22T02:08:49.434Z,25
2023-03-22T02:18:54.550Z,14
2023-03-22T02:28:59.032Z,6
2023-03-22T02:39:04.333Z,4
2023-03-22T02:49:08.962Z,13
2023-03-22T02:59:13.348Z,32
2023-03-22T03:09:19.317Z,27
2023-03-22T03:19:24.766Z,26
2023-03-22T03:29:31.148Z,32
2023-03-22T03:39:37.403Z,30
2023-03-22T03:49:42.938Z,39
2023-03-22T03:59:48.370Z,42
2023-03-22T04:09:54.696Z,12
2023-03-22T04:20:00.174Z,3
2023-03-22T04:30:06.251Z,4
2023-03-22T04:40:13.433Z,4
2023-03-22T04:50:20.656Z,4
2023-03-22T05:00:26.547Z,2
2023-03-22T05:10:30.452Z,4
2023-03-22T05:20:38.274Z,4
2023-03-22T05:30:43.757Z,3
2023-03-22T05:40:48.343Z,5
2023-03-22T05:50:52.608Z,3
2023-03-22T06:00:57.920Z,4
2023-03-22T06:11:05.928Z,3
2023-03-22T06:21:11.041Z,4
2023-03-22T06:31:18.023Z,3
2023-03-22T06:41:23.713Z,4
2023-03-22T06:51:31.269Z,3
2023-03-22T07:01:35.758Z,4
2023-03-22T07:11:42.353Z,3
2023-03-22T07:21:47.780Z,6
2023-03-22T08:02:11.635Z,4
2023-03-22T08:12:17.307Z,4
2023-03-22T08:32:30.265Z,4
2023-03-22T08:42:34.637Z,4
2023-03-22T08:52:39.214Z,7
2023-03-22T09:02:45.066Z,3
2023-03-22T09:12:49.136Z,4
2023-03-22T09:22:53.434Z,4
2023-03-22T09:32:59.042Z,4
2023-03-22T09:43:03.918Z,7
2023-03-22T09:53:09.837Z,10
2023-03-22T10:33:44.539Z,4
2023-03-22T10:43:38.513Z,3
2023-03-22T10:53:44.290Z,4
2023-03-22T11:03:49.696Z,5
2023-03-22T11:13:56.295Z,4
2023-03-22T11:24:02.215Z,5
2023-03-22T11:34:07.833Z,5
2023-03-22T12:44:58.888Z,7
2023-03-22T15:46:49.792Z,6
2023-03-22T15:57:02.247Z,6
2023-03-22T16:07:02.044Z,6
2023-03-22T16:17:08.977Z,6
2023-03-22T16:27:15.000Z,6
2023-03-22T16:37:21.043Z,7
2023-03-22T16:47:27.172Z,7
2023-03-22T16:57:33.843Z,6
2023-03-22T17:07:39.015Z,5
2023-03-22T17:17:45.545Z,5
2023-03-22T17:27:52.072Z,6
2023-03-22T17:37:59.467Z,7
2023-03-22T17:49:33.700Z,7
2023-03-22T18:02:27.332Z,8
2023-03-22T18:12:29.057Z,15
2023-03-22T18:22:52.068Z,18
2023-03-22T18:33:46.598Z,9
2023-03-22T18:44:40.883Z,6
2023-03-22T18:49:45.143Z,12
2023-03-22T19:01:41.978Z,8
2023-03-22T19:11:47.541Z,10
2023-03-22T19:22:47.549Z,17
2023-03-22T19:33:15.655Z,9
2023-03-22T19:44:18.972Z,11
2023-03-22T19:55:26.811Z,8
2023-03-22T20:05:50.777Z,8
2023-03-22T20:15:45.426Z,6
2023-03-22T20:25:51.715Z,9
2023-03-22T20:35:58.563Z,5
2023-03-22T20:46:02.762Z,5
2023-03-22T20:56:09.970Z,6
2023-03-22T21:06:14.729Z,8
2023-03-22T21:16:21.169Z,7
2023-03-22T21:26:27.376Z,5
2023-03-22T21:36:33.794Z,6
2023-03-22T21:46:38.875Z,5
2023-03-22T21:56:46.139Z,8
2023-03-22T22:06:51.740Z,4
2023-03-22T22:16:57.258Z,6
2023-03-22T22:27:04.120Z,5
2023-03-22T22:37:09.463Z,5
2023-03-22T22:47:16.188Z,6
2023-03-22T22:57:22.300Z,5
2023-03-22T23:07:28.098Z,4
2023-03-22T23:17:35.562Z,5
2023-03-22T23:27:42.349Z,6
2023-03-22T23:37:48.709Z,5
2023-03-22T23:47:54.846Z,3
2023-03-22T23:58:02.378Z,6
